Time;durP1;ratioP1;P1;durP2;ratioP2;P2;SDS_P1;SDS_P2;PMS_P1;PMS_P2;Temp;Humidity;BMP_temperature;BMP_pressure;BME280_temperature;BME280_humidity;BME280_pressure;Samples;Min_cycle;Max_cycle;Signal;HPM_P1;HPM_P2
2022/08/15 00:01:11;;;;;;;64.05;57.80;;;;;;;-143.39;100.00;64013.03;6185637;23;20148;-81
2022/08/15 00:03:41;;;;;;;67.43;61.20;;;;;;;-143.39;100.00;64013.03;6186021;23;20017;-79
2022/08/15 00:06:21;;;;;;;61.88;55.97;;;;;;;-143.39;100.00;64013.03;6186579;23;20025;-82
2022/08/15 00:08:52;;;;;;;65.38;59.33;;;;;;;-143.39;100.00;64013.03;6186427;23;20025;-79
2022/08/15 00:11:22;;;;;;;60.95;55.10;;;;;;;-143.39;100.00;64013.03;6186082;23;20087;-79
2022/08/15 00:14:00;;;;;;;63.70;56.80;;;;;;;-143.39;100.00;64013.03;6186394;23;20052;-81
2022/08/15 00:16:36;;;;;;;64.85;58.33;;;;;;;-143.39;100.00;64013.03;6186010;23;20017;-81
2022/08/15 00:19:07;;;;;;;63.67;57.22;;;;;;;-143.39;100.00;64013.03;6186027;23;20027;-80
2022/08/15 00:21:35;;;;;;;62.13;55.97;;;;;;;-143.39;100.00;64013.03;6186054;23;20025;-82
2022/08/15 00:24:25;;;;;;;59.80;53.80;;;;;;;-143.39;100.00;64013.03;6186926;23;20025;-80
2022/08/15 00:26:56;;;;;;;60.05;54.17;;;;;;;-143.39;100.00;64013.03;6139846;23;20013;-79
2022/08/15 00:29:27;;;;;;;59.72;53.67;;;;;;;-143.39;100.00;64013.03;6185960;23;20021;-80
2022/08/15 00:31:54;;;;;;;65.90;59.63;;;;;;;-143.39;100.00;64013.03;6185623;23;20100;-79
2022/08/15 00:34:26;;;;;;;71.47;64.22;;;;;;;-143.39;100.00;64013.03;6185849;23;20021;-81
2022/08/15 00:36:57;;;;;;;72.50;65.10;;;;;;;-143.39;100.00;64013.03;6186125;23;20032;-82
2022/08/15 00:39:34;;;;;;;63.97;57.87;;;;;;;-143.39;100.00;64013.03;6185905;23;20040;-82
2022/08/15 00:42:07;;;;;;;60.33;54.30;;;;;;;-143.39;100.00;64013.03;6186035;23;20524;-82
2022/08/15 00:44:40;;;;;;;57.65;51.83;;;;;;;-143.39;100.00;64013.03;6185486;23;20513;-79
2022/08/15 00:47:14;;;;;;;64.32;57.78;;;;;;;-143.39;100.00;64013.03;6185925;23;20055;-82
2022/08/15 00:49:41;;;;;;;61.75;55.35;;;;;;;-143.39;100.00;64013.03;6185710;23;20452;-82
2022/08/15 00:52:13;;;;;;;62.22;55.92;;;;;;;-143.39;100.00;64013.03;6185656;23;20031;-80
2022/08/15 00:54:48;;;;;;;65.53;58.65;;;;;;;-143.39;100.00;64013.03;6186060;23;20021;-82
2022/08/15 00:57:19;;;;;;;66.65;59.58;;;;;;;-143.39;100.00;64013.03;6185535;23;20100;-79
2022/08/15 00:59:51;;;;;;;64.45;57.53;;;;;;;-143.39;100.00;64013.03;6186019;23;20334;-80
2022/08/15 01:02:22;;;;;;;63.75;57.35;;;;;;;-143.39;100.00;64013.03;6185648;23;20052;-80
2022/08/15 01:04:52;;;;;;;62.75;56.03;;;;;;;-143.39;100.00;64013.03;6186162;23;20021;-83
2022/08/15 01:07:19;;;;;;;57.67;51.53;;;;;;;-143.39;100.00;64013.03;6186136;23;20320;-80
2022/08/15 01:09:49;;;;;;;59.35;53.50;;;;;;;-143.39;100.00;64013.03;6185372;23;20021;-80
2022/08/15 01:12:22;;;;;;;59.85;54.05;;;;;;;-143.39;100.00;64013.03;6185457;23;20017;-79
2022/08/15 01:14:52;;;;;;;60.70;54.75;;;;;;;-143.39;100.00;64013.03;6185611;23;20033;-79
2022/08/15 01:17:23;;;;;;;61.50;55.13;;;;;;;-143.39;100.00;64013.03;6185547;23;20021;-81
2022/08/15 01:20:00;;;;;;;61.00;54.50;;;;;;;-143.39;100.00;64013.03;6185399;23;20017;-79
2022/08/15 01:22:47;;;;;;;62.35;56.25;;;;;;;-143.39;100.00;64013.03;6185707;23;20037;-79
2022/08/15 01:25:23;;;;;;;61.60;55.35;;;;;;;-143.39;100.00;64013.03;6185386;23;20039;-79
2022/08/15 01:27:58;;;;;;;58.25;52.35;;;;;;;-143.39;100.00;64013.03;6184746;23;20017;-79
2022/08/15 01:30:34;;;;;;;59.83;53.72;;;;;;;-143.39;100.00;64013.03;6185191;23;20342;-83
2022/08/15 01:33:03;;;;;;;57.47;51.97;;;;;;;-143.39;100.00;64013.03;6184715;23;20027;-79
2022/08/15 01:35:32;;;;;;;55.25;49.80;;;;;;;-143.39;100.00;64013.03;6185740;23;20021;-82
2022/08/15 01:38:03;;;;;;;59.10;53.17;;;;;;;-143.39;100.00;64013.03;6185259;23;20044;-79
2022/08/15 01:40:40;;;;;;;57.08;51.47;;;;;;;-143.39;100.00;64013.03;6185916;23;20021;-79
2022/08/15 01:43:15;;;;;;;56.28;50.65;;;;;;;-143.39;100.00;64013.03;6185302;23;20017;-79
2022/08/15 01:45:46;;;;;;;61.90;56.13;;;;;;;-143.39;100.00;64013.03;6185201;23;20081;-82
2022/08/15 01:48:18;;;;;;;62.40;56.35;;;;;;;-143.39;100.00;64013.03;6184926;23;20017;-82
2022/08/15 01:50:51;;;;;;;60.20;54.58;;;;;;;-143.39;100.00;64013.03;6185697;23;20043;-82
2022/08/15 01:53:26;;;;;;;;;;;;;;;-143.39;100.00;64013.03;6185775;23;20043;-82
2022/08/15 01:55:59;;;;;;;57.03;51.65;;;;;;;-143.39;100.00;64013.03;6185810;23;19987;-82
2022/08/15 01:58:32;;;;;;;53.63;47.88;;;;;;;-143.39;100.00;64013.03;6185035;23;20442;-82
2022/08/15 02:01:02;;;;;;;58.10;52.80;;;;;;;-143.39;100.00;64013.03;6176759;23;20037;-80
2022/08/15 02:03:34;;;;;;;56.42;50.80;;;;;;;-143.39;100.00;64013.03;6177205;23;20281;-82
2022/08/15 02:06:02;;;;;;;;;;;;;;;-143.39;100.00;64013.03;6182925;23;20041;-82
2022/08/15 02:08:29;;;;;;;55.13;49.47;;;;;;;-143.39;100.00;64013.03;6183163;23;19924;-82
2022/08/15 02:10:58;;;;;;;64.22;58.22;;;;;;;-143.39;100.00;64013.03;6183644;23;20032;-80
2022/08/15 02:13:25;;;;;;;68.07;61.78;;;;;;;-143.39;100.00;64013.03;6183995;23;20024;-79
2022/08/15 02:15:55;;;;;;;73.68;67.28;;;;;;;-143.39;100.00;64013.03;6185706;23;20104;-81
2022/08/15 02:18:22;;;;;;;71.68;65.18;;;;;;;-143.39;100.00;64013.03;6186375;23;20025;-79
2022/08/15 02:20:51;;;;;;;57.40;51.88;;;;;;;-143.39;100.00;64013.03;6185462;23;20017;-80
2022/08/15 02:23:21;;;;;;;64.07;57.80;;;;;;;-143.39;100.00;64013.03;6185448;23;20021;-81
2022/08/15 02:25:48;;;;;;;59.03;53.20;;;;;;;-143.39;100.00;64013.03;6186491;23;20033;-82
2022/08/15 02:28:18;;;;;;;65.82;59.53;;;;;;;-143.39;100.00;64013.03;6185547;23;20469;-82
2022/08/15 02:30:46;;;;;;;60.72;54.63;;;;;;;-143.39;100.00;64013.03;6185736;23;20017;-81
2022/08/15 02:33:16;;;;;;;77.57;70.82;;;;;;;-143.39;100.00;64013.03;6186307;23;20044;-79
2022/08/15 02:35:47;;;;;;;75.60;68.55;;;;;;;-143.39;100.00;64013.03;6185975;23;20088;-81
2022/08/15 02:38:15;;;;;;;76.93;69.88;;;;;;;-143.39;100.00;64013.03;6185817;23;20021;-79
2022/08/15 02:40:41;;;;;;;102.72;94.63;;;;;;;-143.39;100.00;64013.03;6185864;23;20026;-81
2022/08/15 02:43:18;;;;;;;96.65;88.22;;;;;;;-143.39;100.00;64013.03;6185307;23;20077;-79
2022/08/15 02:45:50;;;;;;;97.68;89.75;;;;;;;-143.39;100.00;64013.03;6184994;23;20044;-82
2022/08/15 02:48:21;;;;;;;98.25;90.15;;;;;;;-143.39;100.00;64013.03;6185272;23;20021;-82
2022/08/15 02:50:50;;;;;;;81.68;74.72;;;;;;;-143.39;100.00;64013.03;6187517;23;20342;-82
2022/08/15 02:53:27;;;;;;;77.25;70.28;;;;;;;-143.39;100.00;64013.03;6186527;23;20095;-84
2022/08/15 02:55:55;;;;;;;71.95;64.85;;;;;;;-143.39;100.00;64013.03;6186936;23;20315;-83
2022/08/15 02:58:24;;;;;;;74.18;67.60;;;;;;;-143.39;100.00;64013.03;6186405;23;20020;-80
2022/08/15 03:00:56;;;;;;;97.70;89.68;;;;;;;-143.39;100.00;64013.03;6186684;23;20021;-81
2022/08/15 03:03:29;;;;;;;77.85;70.90;;;;;;;-143.39;100.00;64013.03;6187119;23;20029;-80
2022/08/15 03:06:00;;;;;;;76.13;69.05;;;;;;;-143.39;100.00;64013.03;6186995;23;20029;-80
2022/08/15 03:08:28;;;;;;;73.47;66.93;;;;;;;-143.39;100.00;64013.03;6187423;23;20025;-82
2022/08/15 03:10:58;;;;;;;64.22;57.55;;;;;;;-143.39;100.00;64013.03;6186804;23;20103;-83
2022/08/15 03:13:38;;;;;;;79.32;72.07;;;;;;;-143.39;100.00;64013.03;6185733;23;20462;-83
2022/08/15 03:16:12;;;;;;;84.35;76.93;;;;;;;-143.39;100.00;64013.03;6184300;23;20099;-82
2022/08/15 03:18:41;;;;;;;116.30;107.10;;;;;;;-143.39;100.00;64013.03;6185182;23;20023;-80
2022/08/15 03:21:14;;;;;;;87.18;79.47;;;;;;;-143.39;100.00;64013.03;6185375;23;20025;-80
2022/08/15 03:23:48;;;;;;;88.78;81.07;;;;;;;-143.39;100.00;64013.03;6184488;23;20108;-83
2022/08/15 03:26:34;;;;;;;77.43;70.15;;;;;;;-143.39;100.00;64013.03;6184955;23;20021;-81
2022/08/15 03:29:06;;;;;;;101.70;93.80;;;;;;;-143.39;100.00;64013.03;6185773;23;20529;-79
2022/08/15 03:31:41;;;;;;;77.53;70.68;;;;;;;-143.39;100.00;64013.03;6187043;23;20017;-83
2022/08/15 03:34:09;;;;;;;78.80;71.90;;;;;;;-143.39;100.00;64013.03;6186921;23;20051;-79
2022/08/15 03:36:36;;;;;;;77.53;70.38;;;;;;;-143.39;100.00;64013.03;6186858;23;20028;-81
2022/08/15 03:39:08;;;;;;;69.00;62.58;;;;;;;-143.39;100.00;64013.03;6186409;23;20021;-79
2022/08/15 03:41:35;;;;;;;57.53;51.97;;;;;;;-143.39;100.00;64013.03;6187351;23;20025;-80
2022/08/15 03:44:05;;;;;;;66.97;60.45;;;;;;;-143.39;100.00;64013.03;6187358;23;20390;-82
2022/08/15 03:46:32;;;;;;;66.30;60.03;;;;;;;-143.39;100.00;64013.03;6187132;23;20025;-83
2022/08/15 03:49:02;;;;;;;59.75;54.05;;;;;;;-143.39;100.00;64013.03;6186707;23;20017;-79
2022/08/15 03:51:30;;;;;;;65.75;59.53;;;;;;;-143.39;100.00;64013.03;6186921;23;20031;-80
2022/08/15 03:54:00;;;;;;;69.50;63.33;;;;;;;-143.39;100.00;64013.03;6186878;23;20025;-79
2022/08/15 03:56:39;;;;;;;63.65;57.42;;;;;;;-143.39;100.00;64013.03;6187228;23;20025;-82
2022/08/15 03:59:06;;;;;;;61.47;55.60;;;;;;;-143.39;100.00;64013.03;6187436;23;20075;-79
2022/08/15 04:01:37;;;;;;;58.97;53.38;;;;;;;-143.39;100.00;64013.03;6186165;23;20040;-81
2022/08/15 04:04:10;;;;;;;57.88;52.38;;;;;;;-143.39;100.00;64013.03;6187679;23;20025;-78
2022/08/15 04:06:41;;;;;;;62.50;56.60;;;;;;;-143.39;100.00;64013.03;6186957;23;20386;-81
2022/08/15 04:09:08;;;;;;;70.63;63.47;;;;;;;-143.39;100.00;64013.03;6187592;23;20043;-79
2022/08/15 04:11:36;;;;;;;60.15;54.35;;;;;;;-143.39;100.00;64013.03;6186187;23;20056;-83
2022/08/15 04:14:10;;;;;;;62.42;56.63;;;;;;;-143.39;100.00;64013.03;6185706;23;20017;-82
2022/08/15 04:16:39;;;;;;;60.30;54.42;;;;;;;-143.39;100.00;64013.03;6187551;23;20035;-82
2022/08/15 04:19:05;;;;;;;60.15;54.35;;;;;;;-143.39;100.00;64013.03;6186563;23;20058;-82
2022/08/15 04:21:40;;;;;;;58.28;52.53;;;;;;;-143.39;100.00;64013.03;6186229;23;20468;-79
2022/08/15 04:24:12;;;;;;;64.00;58.10;;;;;;;-143.39;100.00;64013.03;6186607;23;20029;-82
2022/08/15 04:26:39;;;;;;;66.82;60.45;;;;;;;-143.39;100.00;64013.03;6186381;23;20414;-79
2022/08/15 04:29:09;;;;;;;71.25;64.95;;;;;;;-143.39;100.00;64013.03;6186463;23;20032;-82
2022/08/15 04:31:38;;;;;;;79.60;73.18;;;;;;;-143.39;100.00;64013.03;6185758;23;20519;-79
2022/08/15 04:34:06;;;;;;;63.72;58.03;;;;;;;-143.39;100.00;64013.03;6186789;23;20056;-81
2022/08/15 04:36:33;;;;;;;71.22;65.03;;;;;;;-143.39;100.00;64013.03;6186648;23;20043;-84
2022/08/15 04:39:04;;;;;;;60.40;55.08;;;;;;;-143.39;100.00;64013.03;6186468;23;20029;-82
2022/08/15 04:41:32;;;;;;;59.55;54.42;;;;;;;-143.39;100.00;64013.03;6186423;23;20033;-82
2022/08/15 04:44:05;;;;;;;62.03;56.53;;;;;;;-143.39;100.00;64013.03;6186730;23;20021;-82
2022/08/15 04:46:32;;;;;;;64.90;59.60;;;;;;;-143.39;100.00;64013.03;6185989;23;20017;-82
2022/08/15 04:48:59;;;;;;;71.03;65.13;;;;;;;-143.39;100.00;64013.03;6186863;23;20032;-82
2022/08/15 04:51:26;;;;;;;73.38;67.38;;;;;;;-143.39;100.00;64013.03;6186220;23;20025;-80
2022/08/15 04:53:53;;;;;;;77.95;71.45;;;;;;;-143.39;100.00;64013.03;6186008;23;20490;-80
2022/08/15 04:56:23;;;;;;;74.75;68.38;;;;;;;-143.39;100.00;64013.03;6186765;23;20032;-82
2022/08/15 04:58:50;;;;;;;70.95;64.88;;;;;;;-143.39;100.00;64013.03;6186591;23;20024;-79
2022/08/15 05:01:19;;;;;;;73.13;67.22;;;;;;;-143.39;100.00;64013.03;6186081;23;20035;-80
2022/08/15 05:04:31;;;;;;;68.38;62.58;;;;;;;-143.39;100.00;64013.03;6186470;23;20021;-87
2022/08/15 05:06:58;;;;;;;64.72;59.28;;;;;;;-143.39;100.00;64013.03;6186781;23;20017;-82
2022/08/15 05:09:25;;;;;;;66.00;60.50;;;;;;;-143.39;100.00;64013.03;6186258;23;20029;-82
2022/08/15 05:12:09;;;;;;;69.78;64.05;;;;;;;-143.39;100.00;64013.03;6185631;23;20025;-79
2022/08/15 05:14:37;;;;;;;69.32;63.67;;;;;;;-143.39;100.00;64013.03;6186101;23;20025;-82
2022/08/15 05:17:07;;;;;;;70.72;65.18;;;;;;;-143.39;100.00;64013.03;6185886;23;20028;-80
2022/08/15 05:19:34;;;;;;;68.05;62.60;;;;;;;-143.39;100.00;64013.03;6185906;23;20020;-82
2022/08/15 05:22:03;;;;;;;66.38;60.97;;;;;;;-143.39;100.00;64013.03;6186487;23;20021;-80
2022/08/15 05:24:30;;;;;;;73.80;67.60;;;;;;;-143.39;100.00;64013.03;6184891;23;20319;-79
2022/08/15 05:26:57;;;;;;;73.05;67.32;;;;;;;-143.39;100.00;64013.03;6185560;23;20025;-79
2022/08/15 05:29:29;;;;;;;73.13;67.10;;;;;;;-143.39;100.00;64013.03;6185416;23;20036;-83
2022/08/15 05:31:58;;;;;;;68.80;63.22;;;;;;;-143.39;100.00;64013.03;6186127;23;20087;-79
2022/08/15 05:34:28;;;;;;;76.47;70.55;;;;;;;-143.39;100.00;64013.03;6185165;23;20025;-83
2022/08/15 05:37:00;;;;;;;66.95;61.15;;;;;;;-143.39;100.00;64013.03;6185695;23;20053;-80
2022/08/15 05:39:31;;;;;;;65.78;59.88;;;;;;;-143.39;100.00;64013.03;6185662;23;20021;-79
2022/08/15 05:42:05;;;;;;;64.70;58.90;;;;;;;-143.39;100.00;64013.03;6185142;23;20442;-83
2022/08/15 05:44:44;;;;;;;68.72;62.83;;;;;;;-143.39;100.00;64013.03;6185177;23;20036;-80
2022/08/15 05:47:24;;;;;;;68.35;62.65;;;;;;;-143.39;100.00;64013.03;6185149;23;20021;-79
2022/08/15 05:49:57;;;;;;;63.53;58.20;;;;;;;-143.39;100.00;64013.03;6185929;23;20084;-85
2022/08/15 05:52:32;;;;;;;60.63;55.72;;;;;;;-143.39;100.00;64013.03;6186008;23;20031;-79
2022/08/15 05:55:16;;;;;;;60.42;54.80;;;;;;;-143.39;100.00;64013.03;6185342;23;20017;-82
2022/08/15 05:58:11;;;;;;;58.60;53.33;;;;;;;-143.39;100.00;64013.03;6184952;23;20033;-80
2022/08/15 06:00:48;;;;;;;61.95;56.78;;;;;;;-143.39;100.00;64013.03;6185491;23;20017;-81
2022/08/15 06:03:25;;;;;;;62.70;57.05;;;;;;;-143.39;100.00;64013.03;6184392;23;20036;-83
2022/08/15 06:05:56;;;;;;;60.72;55.47;;;;;;;-143.39;100.00;64013.03;6185900;23;20029;-85
2022/08/15 06:08:31;;;;;;;61.13;55.83;;;;;;;-143.39;100.00;64013.03;6185781;23;20454;-83
2022/08/15 06:11:12;;;;;;;60.58;55.28;;;;;;;-143.39;100.00;64013.03;6185801;23;20020;-81
2022/08/15 06:13:46;;;;;;;60.92;55.85;;;;;;;-143.39;100.00;64013.03;6185853;23;20099;-83
2022/08/15 06:16:26;;;;;;;61.53;55.80;;;;;;;-143.39;100.00;64013.03;6185698;23;20017;-81
2022/08/15 06:18:55;;;;;;;55.67;50.67;;;;;;;-143.39;100.00;64013.03;6185505;23;20055;-82
2022/08/15 06:21:34;;;;;;;54.67;49.95;;;;;;;-143.39;100.00;64013.03;6184341;23;20040;-82
2022/08/15 06:24:12;;;;;;;60.60;54.40;;;;;;;-143.39;100.00;64013.03;6185333;23;20024;-80
2022/08/15 06:26:49;;;;;;;56.58;51.30;;;;;;;-143.39;100.00;64013.03;6187286;23;20087;-80
2022/08/15 06:29:36;;;;;;;59.60;53.80;;;;;;;-143.39;100.00;64013.03;6186765;23;20346;-81
2022/08/15 06:32:08;;;;;;;53.58;44.97;;;;;;;-143.39;100.00;64013.03;6187037;23;20446;-81
2022/08/15 06:34:46;;;;;;;53.38;48.20;;;;;;;-143.39;100.00;64013.03;6187647;23;20028;-83
2022/08/15 06:37:23;;;;;;;57.63;51.58;;;;;;;-143.39;100.00;64013.03;6186353;23;20513;-83
2022/08/15 06:40:14;;;;;;;69.68;62.47;;;;;;;-143.39;100.00;64013.03;6186600;23;20020;-82
2022/08/15 06:42:46;;;;;;;67.22;58.88;;;;;;;-143.39;100.00;64013.03;6185822;23;20342;-83
2022/08/15 06:45:22;;;;;;;63.08;56.20;;;;;;;-143.39;100.00;64013.03;6185893;23;20075;-80
2022/08/15 06:47:57;;;;;;;62.35;56.05;;;;;;;-143.39;100.00;64013.03;6185631;23;20029;-82
2022/08/15 06:50:32;;;;;;;64.15;57.63;;;;;;;-143.39;100.00;64013.03;6186019;23;20346;-82
2022/08/15 06:53:09;;;;;;;58.70;53.03;;;;;;;-143.39;100.00;64013.03;6186334;23;20060;-82
2022/08/15 06:55:46;;;;;;;58.25;52.88;;;;;;;-143.39;100.00;64013.03;6186414;23;20024;-82
2022/08/15 06:58:18;;;;;;;58.05;52.58;;;;;;;-143.39;100.00;64013.03;6186826;23;20021;-81
2022/08/15 07:00:53;;;;;;;52.60;47.17;;;;;;;-143.39;100.00;64013.03;6186652;23;20029;-82
2022/08/15 07:03:38;;;;;;;53.85;48.53;;;;;;;-143.39;100.00;64013.03;6186123;23;20255;-79
2022/08/15 07:06:11;;;;;;;54.05;49.33;;;;;;;-143.39;100.00;64013.03;6186040;23;20025;-79
2022/08/15 07:08:44;;;;;;;53.58;48.40;;;;;;;-143.39;100.00;64013.03;6185457;23;20446;-80
2022/08/15 07:11:18;;;;;;;60.63;54.65;;;;;;;-143.39;100.00;64013.03;6186919;23;20342;-79
2022/08/15 07:14:07;;;;;;;51.83;46.42;;;;;;;-143.39;100.00;64013.03;6186539;23;20020;-79
2022/08/15 07:16:39;;;;;;;54.10;48.60;;;;;;;-143.39;100.00;64013.03;6186367;23;20107;-79
2022/08/15 07:19:13;;;;;;;57.65;52.22;;;;;;;-143.39;100.00;64013.03;6186424;23;20040;-80
2022/08/15 07:21:44;;;;;;;60.80;55.20;;;;;;;-143.39;100.00;64013.03;6186724;23;20492;-79
2022/08/15 07:24:27;;;;;;;56.30;50.63;;;;;;;-143.39;100.00;64013.03;6184503;23;20032;-82
2022/08/15 07:27:07;;;;;;;;;;;;;;;;;;;;;
2022/08/15 07:29:44;;;;;;;59.22;53.42;;;;;;;-143.39;100.00;64013.03;6183996;23;20092;-83
2022/08/15 07:32:22;;;;;;;58.65;53.10;;;;;;;-143.39;100.00;64013.03;6183931;23;20079;-83
2022/08/15 07:35:01;;;;;;;61.53;56.03;;;;;;;-143.39;100.00;64013.03;6182875;23;20028;-80
2022/08/15 07:37:35;;;;;;;57.65;52.03;;;;;;;-143.39;100.00;64013.03;6185905;23;20103;-83
2022/08/15 07:40:06;;;;;;;62.80;57.20;;;;;;;-143.39;100.00;64013.03;6184772;23;20028;-79
2022/08/15 07:42:41;;;;;;;62.50;56.80;;;;;;;-143.39;100.00;64013.03;6186089;23;20087;-83
2022/08/15 07:45:21;;;;;;;53.13;47.55;;;;;;;-143.39;100.00;64013.03;6186343;23;20079;-82
2022/08/15 07:47:59;;;;;;;53.55;48.47;;;;;;;-143.39;100.00;64013.03;6185551;23;20323;-82
2022/08/15 07:50:37;;;;;;;61.17;55.03;;;;;;;-143.39;100.00;64013.03;6184285;23;20032;-82
2022/08/15 07:53:19;;;;;;;55.03;50.10;;;;;;;-143.39;100.00;64013.03;6184226;23;20568;-81
2022/08/15 07:56:12;;;;;;;58.80;53.27;;;;;;;-143.39;100.00;64013.03;6185935;23;20028;-84
2022/08/15 07:58:42;;;;;;;58.90;53.08;;;;;;;-143.39;100.00;64013.03;6186713;23;20029;-79
2022/08/15 08:01:23;;;;;;;54.70;49.58;;;;;;;-143.39;100.00;64013.03;6185623;23;20032;-79
2022/08/15 08:03:55;;;;;;;54.03;49.15;;;;;;;-143.39;100.00;64013.03;6186472;23;20052;-81
2022/08/15 08:06:36;;;;;;;55.50;50.13;;;;;;;-143.39;100.00;64013.03;6185665;23;20024;-82
2022/08/15 08:09:20;;;;;;;53.47;48.35;;;;;;;-143.39;100.00;64013.03;6186409;23;20091;-82
2022/08/15 08:11:54;;;;;;;51.67;47.13;;;;;;;-143.39;100.00;64013.03;6185870;23;20025;-80
2022/08/15 08:14:35;;;;;;;49.53;45.22;;;;;;;-143.39;100.00;64013.03;6185639;23;20013;-81
2022/08/15 08:17:12;;;;;;;53.00;48.60;;;;;;;-143.39;100.00;64013.03;6186210;23;20021;-79
2022/08/15 08:19:50;;;;;;;54.60;49.97;;;;;;;-143.39;100.00;64013.03;6186165;23;20458;-79
2022/08/15 08:22:28;;;;;;;56.75;52.13;;;;;;;-143.39;100.00;64013.03;6185857;23;20027;-80
2022/08/15 08:25:04;;;;;;;53.70;49.08;;;;;;;-143.39;100.00;64013.03;6184779;23;20032;-81
2022/08/15 08:27:49;;;;;;;54.22;49.30;;;;;;;-143.39;100.00;64013.03;6185395;23;20013;-82
2022/08/15 08:30:22;;;;;;;50.45;45.72;;;;;;;-143.39;100.00;64013.03;6185387;23;20087;-82
2022/08/15 08:32:57;;;;;;;44.10;40.55;;;;;;;-143.39;100.00;64013.03;6185648;23;20092;-79
2022/08/15 08:35:42;;;;;;;52.15;47.65;;;;;;;-143.39;100.00;64013.03;6186214;23;20027;-77
2022/08/15 08:38:38;;;;;;;58.03;52.83;;;;;;;-143.39;100.00;64013.03;6186452;23;20095;-80
2022/08/15 08:41:29;;;;;;;53.92;49.45;;;;;;;-143.39;100.00;64013.03;6185528;23;20067;-81
2022/08/15 08:44:07;;;;;;;51.60;47.38;;;;;;;-143.39;100.00;64013.03;6184503;23;20276;-81
2022/08/15 08:46:50;;;;;;;52.17;47.50;;;;;;;-143.39;100.00;64013.03;6185191;23;20505;-81
2022/08/15 08:49:32;;;;;;;52.78;48.22;;;;;;;-143.39;100.00;64013.03;6185675;23;20025;-79
2022/08/15 08:52:10;;;;;;;50.75;46.15;;;;;;;-143.39;100.00;64013.03;6186597;23;20028;-82
2022/08/15 08:54:50;;;;;;;49.08;44.90;;;;;;;-143.39;100.00;64013.03;6185515;23;20021;-78
2022/08/15 08:57:24;;;;;;;50.60;46.20;;;;;;;-143.39;100.00;64013.03;6185640;23;20018;-81
2022/08/15 09:00:00;;;;;;;50.75;46.75;;;;;;;-143.39;100.00;64013.03;6185291;23;20060;-76
2022/08/15 09:02:34;;;;;;;45.85;42.40;;;;;;;-143.39;100.00;64013.03;6185644;23;20021;-80
2022/08/15 09:05:08;;;;;;;47.80;43.90;;;;;;;-143.39;100.00;64013.03;6185342;23;20064;-77
2022/08/15 09:07:48;;;;;;;47.75;44.25;;;;;;;-143.39;100.00;64013.03;6185814;23;20025;-78
2022/08/15 09:10:23;;;;;;;46.03;42.30;;;;;;;-143.39;100.00;64013.03;6185451;23;20021;-77
2022/08/15 09:15:42;;;;;;;42.40;39.25;;;;;;;-143.39;100.00;64013.03;6185825;23;20413;-80
2022/08/15 09:18:13;;;;;;;45.67;42.28;;;;;;;-143.39;100.00;64013.03;6185367;23;20040;-80
2022/08/15 09:20:41;;;;;;;41.78;38.88;;;;;;;-143.39;100.00;64013.03;6185746;23;20040;-77
2022/08/15 09:23:15;;;;;;;40.10;37.35;;;;;;;-143.39;100.00;64013.03;6186350;23;20052;-80
2022/08/15 09:25:56;;;;;;;46.92;43.58;;;;;;;-143.39;100.00;64013.03;6185361;23;20528;-80
2022/08/15 09:28:30;;;;;;;37.92;35.22;;;;;;;-143.39;100.00;64013.03;6185168;23;20040;-80
2022/08/15 09:31:00;;;;;;;40.03;37.38;;;;;;;-143.39;100.00;64013.03;6185182;23;20107;-78
2022/08/15 09:33:54;;;;;;;40.88;38.22;;;;;;;-143.39;100.00;64013.03;6185524;23;20028;-77
2022/08/15 09:36:46;;;;;;;35.90;33.40;;;;;;;-143.39;100.00;64013.03;6185404;23;20064;-77
2022/08/15 09:39:29;;;;;;;40.40;37.70;;;;;;;-143.39;100.00;64013.03;6185438;23;20334;-84
2022/08/15 09:42:19;;;;;;;37.10;34.17;;;;;;;-143.39;100.00;64013.03;6184926;23;20450;-78
2022/08/15 09:45:13;;;;;;;35.40;33.10;;;;;;;-143.39;100.00;64013.03;6184940;23;20032;-80
2022/08/15 09:48:04;;;;;;;36.08;33.47;;;;;;;-143.39;100.00;64013.03;6184640;23;20055;-77
2022/08/15 09:50:47;;;;;;;33.30;30.80;;;;;;;-143.39;100.00;64013.03;6185544;23;20025;-80
2022/08/15 09:53:32;;;;;;;35.85;32.78;;;;;;;-143.39;100.00;64013.03;6185373;23;20021;-81
2022/08/15 09:56:07;;;;;;;32.90;30.55;;;;;;;-143.39;100.00;64013.03;6185386;23;20080;-78
2022/08/15 09:58:38;;;;;;;37.55;34.92;;;;;;;-143.39;100.00;64013.03;6184409;23;20018;-77
2022/08/15 10:01:12;;;;;;;38.67;35.63;;;;;;;-143.39;100.00;64013.03;6184069;23;20028;-81
2022/08/15 10:04:03;;;;;;;36.88;34.38;;;;;;;-143.39;100.00;64013.03;6185177;23;20315;-78
2022/08/15 10:06:33;;;;;;;35.95;33.40;;;;;;;-143.39;100.00;64013.03;6184839;23;20036;-81
2022/08/15 10:09:31;;;;;;;37.00;34.30;;;;;;;-143.39;100.00;64013.03;6184908;23;20061;-80
2022/08/15 10:12:24;;;;;;;34.67;32.50;;;;;;;-143.39;100.00;64013.03;6180072;23;20017;-79
2022/08/15 10:15:04;;;;;;;32.47;30.17;;;;;;;-143.39;100.00;64013.03;6172414;23;20452;-81
2022/08/15 10:17:45;;;;;;;32.47;30.20;;;;;;;-143.39;100.00;64013.03;6185080;23;20017;-78
2022/08/15 10:20:52;;;;;;;36.30;33.70;;;;;;;-143.39;100.00;64013.03;6184347;23;20053;-80
2022/08/15 10:23:31;;;;;;;35.50;32.95;;;;;;;-143.39;100.00;64013.03;6184862;23;20394;-84
2022/08/15 10:26:20;;;;;;;35.05;32.45;;;;;;;-143.39;100.00;64013.03;6185387;23;20013;-77
2022/08/15 10:29:07;;;;;;;34.70;32.30;;;;;;;-143.39;100.00;64013.03;6185041;23;20394;-77
2022/08/15 10:31:43;;;;;;;38.85;36.28;;;;;;;-143.39;100.00;64013.03;6184838;23;20025;-80
2022/08/15 10:34:29;;;;;;;38.92;36.33;;;;;;;-143.39;100.00;64013.03;6184755;23;20025;-77
2022/08/15 10:37:20;;;;;;;37.00;34.70;;;;;;;-143.39;100.00;64013.03;6186145;23;20043;-84
2022/08/15 10:40:34;;;;;;;34.78;32.30;;;;;;;-143.39;100.00;64013.03;6187918;23;20021;-84
2022/08/15 10:43:24;;;;;;;29.83;27.40;;;;;;;-143.39;100.00;64013.03;6184075;23;20021;-86
2022/08/15 10:46:00;;;;;;;31.38;29.17;;;;;;;-143.39;100.00;64013.03;6187172;23;20032;-85
2022/08/15 10:48:50;;;;;;;37.03;34.65;;;;;;;-143.39;100.00;64013.03;6185818;23;20057;-84
2022/08/15 10:51:35;;;;;;;32.92;30.80;;;;;;;-143.39;100.00;64013.03;6185273;23;20024;-82
2022/08/15 10:54:17;;;;;;;33.00;30.70;;;;;;;-143.39;100.00;64013.03;6184732;23;20426;-82
2022/08/15 10:56:43;;;;;;;32.38;30.08;;;;;;;-143.39;100.00;64013.03;6185566;23;20032;-81
2022/08/15 10:59:19;;;;;;;32.22;29.88;;;;;;;-143.39;100.00;64013.03;6186122;23;20021;-81
2022/08/15 11:01:51;;;;;;;32.67;30.17;;;;;;;-143.39;100.00;64013.03;6182821;23;20505;-86
2022/08/15 11:04:46;;;;;;;31.00;28.67;;;;;;;-143.39;100.00;64013.03;6187857;23;20401;-89
2022/08/15 11:07:33;;;;;;;29.85;27.65;;;;;;;-143.39;100.00;64013.03;6187442;23;20025;-84
2022/08/15 11:10:08;;;;;;;31.52;29.13;;;;;;;-143.39;100.00;64013.03;6186440;23;20021;-86
2022/08/15 11:12:42;;;;;;;31.02;28.92;;;;;;;-143.39;100.00;64013.03;6189254;23;20021;-90
2022/08/15 11:15:17;;;;;;;29.13;26.92;;;;;;;-143.39;100.00;64013.03;6190388;23;20017;-84
2022/08/15 11:18:04;;;;;;;30.42;28.33;;;;;;;-143.39;100.00;64013.03;6190975;23;20021;-87
2022/08/15 11:20:43;;;;;;;29.75;27.65;;;;;;;-143.39;100.00;64013.03;6189465;23;20397;-83
2022/08/15 11:23:43;;;;;;;30.08;27.70;;;;;;;-143.39;100.00;64013.03;6191535;23;20461;-83
2022/08/15 11:26:25;;;;;;;27.30;25.40;;;;;;;-143.39;100.00;64013.03;6193461;23;20104;-87
2022/08/15 11:29:15;;;;;;;29.35;27.15;;;;;;;-143.39;100.00;64013.03;6193696;23;20338;-82
2022/08/15 11:31:51;;;;;;;33.42;30.67;;;;;;;-143.39;100.00;64013.03;6191817;23;20017;-85
2022/08/15 11:34:29;;;;;;;28.42;26.25;;;;;;;-143.39;100.00;64013.03;6190147;23;20017;-84
2022/08/15 11:37:18;;;;;;;29.60;27.10;;;;;;;-143.39;100.00;64013.03;6189732;23;20021;-84